sensor_id;sensor_type;location;lat;lon;timestamp;temperature;humidity
21770;DHT22;11046;49.558;8.674;2022-09-16T00:02:03;14.90;87.00
21770;DHT22;11046;49.558;8.674;2022-09-16T00:05:04;15.00;86.20
21770;DHT22;11046;49.558;8.674;2022-09-16T00:08:05;14.90;86.40
21770;DHT22;11046;49.558;8.674;2022-09-16T00:11:06;14.80;86.60
21770;DHT22;11046;49.558;8.674;2022-09-16T00:14:06;14.80;86.70
21770;DHT22;11046;49.558;8.674;2022-09-16T00:17:07;14.80;86.70
21770;DHT22;11046;49.558;8.674;2022-09-16T00:20:08;14.80;86.70
21770;DHT22;11046;49.558;8.674;2022-09-16T00:23:09;14.70;86.80
21770;DHT22;11046;49.558;8.674;2022-09-16T00:26:09;14.70;87.00
21770;DHT22;11046;49.558;8.674;2022-09-16T00:29:10;14.60;87.30
21770;DHT22;11046;49.558;8.674;2022-09-16T00:32:11;14.60;87.50
21770;DHT22;11046;49.558;8.674;2022-09-16T00:35:11;14.60;87.60
21770;DHT22;11046;49.558;8.674;2022-09-16T00:38:13;14.60;87.60
21770;DHT22;11046;49.558;8.674;2022-09-16T00:41:16;14.60;87.50
21770;DHT22;11046;49.558;8.674;2022-09-16T00:48:06;14.50;87.80
21770;DHT22;11046;49.558;8.674;2022-09-16T00:51:08;14.50;88.00
21770;DHT22;11046;49.558;8.674;2022-09-16T00:54:10;14.40;88.10
21770;DHT22;11046;49.558;8.674;2022-09-16T00:57:12;14.40;88.20
21770;DHT22;11046;49.558;8.674;2022-09-16T01:00:14;14.40;88.10
21770;DHT22;11046;49.558;8.674;2022-09-16T01:03:15;14.40;88.20
21770;DHT22;11046;49.558;8.674;2022-09-16T01:06:17;14.40;88.40
21770;DHT22;11046;49.558;8.674;2022-09-16T01:09:21;14.40;88.60
21770;DHT22;11046;49.558;8.674;2022-09-16T01:12:23;14.40;88.60
21770;DHT22;11046;49.558;8.674;2022-09-16T01:15:33;14.30;88.70
21770;DHT22;11046;49.558;8.674;2022-09-16T01:21:50;14.20;89.30
21770;DHT22;11046;49.558;8.674;2022-09-16T01:37:58;14.10;89.70
21770;DHT22;11046;49.558;8.674;2022-09-16T01:44:58;14.10;90.10
21770;DHT22;11046;49.558;8.674;2022-09-16T01:58:05;14.20;90.20
21770;DHT22;11046;49.558;8.674;2022-09-16T02:01:17;14.20;90.10
21770;DHT22;11046;49.558;8.674;2022-09-16T02:04:28;14.20;90.10
21770;DHT22;11046;49.558;8.674;2022-09-16T02:07:32;14.20;90.10
21770;DHT22;11046;49.558;8.674;2022-09-16T02:10:41;14.20;90.10
21770;DHT22;11046;49.558;8.674;2022-09-16T02:17:10;14.20;90.40
21770;DHT22;11046;49.558;8.674;2022-09-16T02:20:15;14.20;90.40
21770;DHT22;11046;49.558;8.674;2022-09-16T02:23:24;14.20;90.40
21770;DHT22;11046;49.558;8.674;2022-09-16T02:26:29;14.10;90.20
21770;DHT22;11046;49.558;8.674;2022-09-16T02:29:38;14.20;90.20
21770;DHT22;11046;49.558;8.674;2022-09-16T02:32:44;14.20;90.10
21770;DHT22;11046;49.558;8.674;2022-09-16T02:35:49;14.20;90.10
21770;DHT22;11046;49.558;8.674;2022-09-16T02:39:13;14.30;90.10
21770;DHT22;11046;49.558;8.674;2022-09-16T02:42:16;14.30;90.10
21770;DHT22;11046;49.558;8.674;2022-09-16T02:45:17;14.30;90.10
21770;DHT22;11046;49.558;8.674;2022-09-16T02:58:06;14.20;90.40
21770;DHT22;11046;49.558;8.674;2022-09-16T03:01:07;14.20;90.30
21770;DHT22;11046;49.558;8.674;2022-09-16T03:04:12;14.20;90.40
21770;DHT22;11046;49.558;8.674;2022-09-16T03:07:14;14.20;90.50
21770;DHT22;11046;49.558;8.674;2022-09-16T03:10:15;14.20;90.60
21770;DHT22;11046;49.558;8.674;2022-09-16T03:13:30;14.10;91.10
21770;DHT22;11046;49.558;8.674;2022-09-16T03:17:00;14.20;90.70
21770;DHT22;11046;49.558;8.674;2022-09-16T03:30:05;14.10;90.70
21770;DHT22;11046;49.558;8.674;2022-09-16T03:33:16;14.10;90.80
21770;DHT22;11046;49.558;8.674;2022-09-16T03:36:22;14.10;90.90
21770;DHT22;11046;49.558;8.674;2022-09-16T03:39:25;14.10;90.90
21770;DHT22;11046;49.558;8.674;2022-09-16T03:42:26;14.10;90.80
21770;DHT22;11046;49.558;8.674;2022-09-16T03:45:26;14.10;90.90
21770;DHT22;11046;49.558;8.674;2022-09-16T03:48:27;14.00;90.90
21770;DHT22;11046;49.558;8.674;2022-09-16T03:51:28;14.10;91.00
21770;DHT22;11046;49.558;8.674;2022-09-16T03:54:28;14.10;90.90
21770;DHT22;11046;49.558;8.674;2022-09-16T03:57:29;14.10;90.80
21770;DHT22;11046;49.558;8.674;2022-09-16T04:00:30;14.10;90.80
21770;DHT22;11046;49.558;8.674;2022-09-16T04:03:30;14.20;90.80
21770;DHT22;11046;49.558;8.674;2022-09-16T04:06:31;14.20;90.80
21770;DHT22;11046;49.558;8.674;2022-09-16T04:09:32;14.20;90.80
21770;DHT22;11046;49.558;8.674;2022-09-16T04:12:33;14.10;90.90
21770;DHT22;11046;49.558;8.674;2022-09-16T04:15:35;14.10;91.00
21770;DHT22;11046;49.558;8.674;2022-09-16T04:18:37;14.10;91.00
21770;DHT22;11046;49.558;8.674;2022-09-16T04:21:39;14.10;91.00
21770;DHT22;11046;49.558;8.674;2022-09-16T04:24:39;14.00;91.00
21770;DHT22;11046;49.558;8.674;2022-09-16T04:27:40;13.90;91.00
21770;DHT22;11046;49.558;8.674;2022-09-16T04:30:41;13.90;91.10
21770;DHT22;11046;49.558;8.674;2022-09-16T04:33:42;13.90;91.10
21770;DHT22;11046;49.558;8.674;2022-09-16T04:36:42;14.00;91.10
21770;DHT22;11046;49.558;8.674;2022-09-16T04:39:43;14.00;91.00
21770;DHT22;11046;49.558;8.674;2022-09-16T04:42:48;14.00;90.90
21770;DHT22;11046;49.558;8.674;2022-09-16T04:45:50;14.00;90.90
21770;DHT22;11046;49.558;8.674;2022-09-16T04:48:52;14.00;90.90
21770;DHT22;11046;49.558;8.674;2022-09-16T04:51:55;14.00;90.90
21770;DHT22;11046;49.558;8.674;2022-09-16T04:54:56;13.90;91.00
21770;DHT22;11046;49.558;8.674;2022-09-16T04:57:58;13.90;90.90
21770;DHT22;11046;49.558;8.674;2022-09-16T05:01:14;13.90;90.90
21770;DHT22;11046;49.558;8.674;2022-09-16T05:04:15;13.90;91.00
21770;DHT22;11046;49.558;8.674;2022-09-16T05:07:16;13.90;91.00
21770;DHT22;11046;49.558;8.674;2022-09-16T05:10:17;13.90;91.00
21770;DHT22;11046;49.558;8.674;2022-09-16T05:13:17;13.90;91.00
21770;DHT22;11046;49.558;8.674;2022-09-16T05:16:20;13.90;91.00
21770;DHT22;11046;49.558;8.674;2022-09-16T05:19:21;13.80;91.00
21770;DHT22;11046;49.558;8.674;2022-09-16T05:22:22;13.80;91.10
21770;DHT22;11046;49.558;8.674;2022-09-16T05:25:22;13.80;91.10
21770;DHT22;11046;49.558;8.674;2022-09-16T05:28:23;13.80;91.10
21770;DHT22;11046;49.558;8.674;2022-09-16T05:31:26;13.80;91.10
21770;DHT22;11046;49.558;8.674;2022-09-16T05:34:30;13.80;91.20
21770;DHT22;11046;49.558;8.674;2022-09-16T05:37:31;13.90;91.10
21770;DHT22;11046;49.558;8.674;2022-09-16T05:40:31;13.90;91.00
21770;DHT22;11046;49.558;8.674;2022-09-16T05:43:33;13.90;91.00
21770;DHT22;11046;49.558;8.674;2022-09-16T05:46:34;13.90;91.10
21770;DHT22;11046;49.558;8.674;2022-09-16T05:49:35;13.90;91.30
21770;DHT22;11046;49.558;8.674;2022-09-16T05:52:36;13.90;91.30
21770;DHT22;11046;49.558;8.674;2022-09-16T05:55:37;14.00;91.30
21770;DHT22;11046;49.558;8.674;2022-09-16T05:58:38;14.00;91.20
21770;DHT22;11046;49.558;8.674;2022-09-16T06:01:39;14.00;91.30
21770;DHT22;11046;49.558;8.674;2022-09-16T06:04:43;14.00;91.40
21770;DHT22;11046;49.558;8.674;2022-09-16T06:07:43;14.10;91.50
21770;DHT22;11046;49.558;8.674;2022-09-16T06:10:44;14.10;91.40
21770;DHT22;11046;49.558;8.674;2022-09-16T06:13:45;14.20;91.50
21770;DHT22;11046;49.558;8.674;2022-09-16T06:16:46;14.30;91.50
21770;DHT22;11046;49.558;8.674;2022-09-16T06:19:49;14.30;91.50
21770;DHT22;11046;49.558;8.674;2022-09-16T06:22:50;14.40;91.50
21770;DHT22;11046;49.558;8.674;2022-09-16T06:26:08;14.50;91.40
21770;DHT22;11046;49.558;8.674;2022-09-16T06:29:10;14.60;91.40
21770;DHT22;11046;49.558;8.674;2022-09-16T06:32:14;14.70;91.30
21770;DHT22;11046;49.558;8.674;2022-09-16T06:35:14;14.70;91.20
21770;DHT22;11046;49.558;8.674;2022-09-16T06:38:15;14.70;91.10
21770;DHT22;11046;49.558;8.674;2022-09-16T06:41:17;14.70;90.90
21770;DHT22;11046;49.558;8.674;2022-09-16T06:44:18;14.80;90.90
21770;DHT22;11046;49.558;8.674;2022-09-16T06:47:19;14.90;90.80
21770;DHT22;11046;49.558;8.674;2022-09-16T06:50:19;15.10;90.80
21770;DHT22;11046;49.558;8.674;2022-09-16T06:53:21;15.20;90.70
21770;DHT22;11046;49.558;8.674;2022-09-16T06:56:22;15.30;90.50
21770;DHT22;11046;49.558;8.674;2022-09-16T06:59:22;15.40;90.20
21770;DHT22;11046;49.558;8.674;2022-09-16T07:02:23;15.40;89.70
21770;DHT22;11046;49.558;8.674;2022-09-16T07:05:24;15.60;89.10
21770;DHT22;11046;49.558;8.674;2022-09-16T07:08:24;15.70;88.30
21770;DHT22;11046;49.558;8.674;2022-09-16T07:11:27;15.70;88.00
21770;DHT22;11046;49.558;8.674;2022-09-16T07:14:28;15.90;88.10
21770;DHT22;11046;49.558;8.674;2022-09-16T07:17:28;16.10;87.70
21770;DHT22;11046;49.558;8.674;2022-09-16T07:20:29;16.20;87.30
21770;DHT22;11046;49.558;8.674;2022-09-16T07:23:31;16.30;86.40
21770;DHT22;11046;49.558;8.674;2022-09-16T07:26:34;16.30;85.30
21770;DHT22;11046;49.558;8.674;2022-09-16T07:29:35;16.40;85.20
21770;DHT22;11046;49.558;8.674;2022-09-16T07:32:35;16.60;84.70
21770;DHT22;11046;49.558;8.674;2022-09-16T07:35:37;16.70;84.10
21770;DHT22;11046;49.558;8.674;2022-09-16T07:38:41;16.80;83.70
21770;DHT22;11046;49.558;8.674;2022-09-16T07:41:44;16.90;83.30
21770;DHT22;11046;49.558;8.674;2022-09-16T07:44:44;17.10;82.90
21770;DHT22;11046;49.558;8.674;2022-09-16T07:47:48;17.00;82.00
21770;DHT22;11046;49.558;8.674;2022-09-16T07:51:00;16.90;81.80
21770;DHT22;11046;49.558;8.674;2022-09-16T07:54:07;16.90;81.50
21770;DHT22;11046;49.558;8.674;2022-09-16T07:57:08;16.80;81.60
21770;DHT22;11046;49.558;8.674;2022-09-16T08:00:09;16.70;81.40
21770;DHT22;11046;49.558;8.674;2022-09-16T08:03:11;16.60;81.50
21770;DHT22;11046;49.558;8.674;2022-09-16T08:06:21;16.60;81.50
21770;DHT22;11046;49.558;8.674;2022-09-16T08:09:25;16.70;81.10
21770;DHT22;11046;49.558;8.674;2022-09-16T08:12:25;16.60;81.00
21770;DHT22;11046;49.558;8.674;2022-09-16T08:15:31;16.70;81.00
21770;DHT22;11046;49.558;8.674;2022-09-16T08:18:33;16.70;80.30
21770;DHT22;11046;49.558;8.674;2022-09-16T08:21:33;16.60;80.30
21770;DHT22;11046;49.558;8.674;2022-09-16T08:24:34;16.60;80.60
21770;DHT22;11046;49.558;8.674;2022-09-16T08:27:35;16.50;80.30
21770;DHT22;11046;49.558;8.674;2022-09-16T08:30:36;16.40;80.10
21770;DHT22;11046;49.558;8.674;2022-09-16T08:33:40;16.30;80.10
21770;DHT22;11046;49.558;8.674;2022-09-16T08:36:42;16.20;79.50
21770;DHT22;11046;49.558;8.674;2022-09-16T08:39:42;16.10;79.50
21770;DHT22;11046;49.558;8.674;2022-09-16T08:46:19;16.20;79.60
21770;DHT22;11046;49.558;8.674;2022-09-16T08:49:40;16.30;79.40
21770;DHT22;11046;49.558;8.674;2022-09-16T08:52:43;16.30;80.20
21770;DHT22;11046;49.558;8.674;2022-09-16T08:55:46;16.40;79.30
21770;DHT22;11046;49.558;8.674;2022-09-16T08:58:52;16.50;78.40
21770;DHT22;11046;49.558;8.674;2022-09-16T09:02:25;16.60;77.70
21770;DHT22;11046;49.558;8.674;2022-09-16T09:08:55;17.20;76.00
21770;DHT22;11046;49.558;8.674;2022-09-16T09:12:12;17.30;76.20
21770;DHT22;11046;49.558;8.674;2022-09-16T09:18:52;17.30;74.30
21770;DHT22;11046;49.558;8.674;2022-09-16T09:41:37;18.70;70.40
21770;DHT22;11046;49.558;8.674;2022-09-16T09:44:53;18.60;69.10
21770;DHT22;11046;49.558;8.674;2022-09-16T09:48:18;18.30;68.30
21770;DHT22;11046;49.558;8.674;2022-09-16T09:51:42;17.90;68.00
21770;DHT22;11046;49.558;8.674;2022-09-16T09:54:48;17.90;68.00
21770;DHT22;11046;49.558;8.674;2022-09-16T10:01:16;18.30;67.10
21770;DHT22;11046;49.558;8.674;2022-09-16T10:04:17;18.80;66.80
21770;DHT22;11046;49.558;8.674;2022-09-16T10:07:21;19.40;65.80
21770;DHT22;11046;49.558;8.674;2022-09-16T10:10:24;19.90;63.10
21770;DHT22;11046;49.558;8.674;2022-09-16T10:13:27;20.10;62.60
21770;DHT22;11046;49.558;8.674;2022-09-16T10:16:34;20.50;60.30
21770;DHT22;11046;49.558;8.674;2022-09-16T10:19:56;20.70;58.10
21770;DHT22;11046;49.558;8.674;2022-09-16T10:23:01;20.50;57.20
21770;DHT22;11046;49.558;8.674;2022-09-16T10:26:24;20.30;57.90
21770;DHT22;11046;49.558;8.674;2022-09-16T10:29:25;20.10;56.80
21770;DHT22;11046;49.558;8.674;2022-09-16T10:32:27;19.90;57.70
21770;DHT22;11046;49.558;8.674;2022-09-16T10:35:30;20.00;57.50
21770;DHT22;11046;49.558;8.674;2022-09-16T10:38:42;20.10;57.10
21770;DHT22;11046;49.558;8.674;2022-09-16T10:41:44;19.90;56.80
21770;DHT22;11046;49.558;8.674;2022-09-16T10:44:49;19.90;57.10
21770;DHT22;11046;49.558;8.674;2022-09-16T10:47:53;19.90;56.90
21770;DHT22;11046;49.558;8.674;2022-09-16T10:50:57;20.00;56.40
21770;DHT22;11046;49.558;8.674;2022-09-16T10:54:00;20.10;56.40
21770;DHT22;11046;49.558;8.674;2022-09-16T10:57:01;20.20;55.30
21770;DHT22;11046;49.558;8.674;2022-09-16T11:00:16;20.30;55.30
21770;DHT22;11046;49.558;8.674;2022-09-16T11:07:05;20.80;55.50
21770;DHT22;11046;49.558;8.674;2022-09-16T11:23:48;20.90;53.80
21770;DHT22;11046;49.558;8.674;2022-09-16T11:30:17;20.30;54.00
21770;DHT22;11046;49.558;8.674;2022-09-16T11:36:53;19.60;54.10
21770;DHT22;11046;49.558;8.674;2022-09-16T11:53:46;20.00;54.00
21770;DHT22;11046;49.558;8.674;2022-09-16T11:56:53;20.00;53.80
21770;DHT22;11046;49.558;8.674;2022-09-16T11:59:59;20.00;54.60
21770;DHT22;11046;49.558;8.674;2022-09-16T12:03:11;20.10;54.00
21770;DHT22;11046;49.558;8.674;2022-09-16T12:06:22;19.70;53.20
21770;DHT22;11046;49.558;8.674;2022-09-16T12:09:38;19.30;55.20
21770;DHT22;11046;49.558;8.674;2022-09-16T12:12:45;18.80;57.10
21770;DHT22;11046;49.558;8.674;2022-09-16T12:15:53;18.20;58.80
21770;DHT22;11046;49.558;8.674;2022-09-16T12:19:00;17.90;60.80
21770;DHT22;11046;49.558;8.674;2022-09-16T12:22:20;17.50;62.60
21770;DHT22;11046;49.558;8.674;2022-09-16T12:25:27;17.40;63.80
21770;DHT22;11046;49.558;8.674;2022-09-16T12:28:45;17.20;64.50
21770;DHT22;11046;49.558;8.674;2022-09-16T12:31:59;17.00;67.30
21770;DHT22;11046;49.558;8.674;2022-09-16T12:35:09;16.80;69.00
21770;DHT22;11046;49.558;8.674;2022-09-16T12:38:17;16.80;69.50
21770;DHT22;11046;49.558;8.674;2022-09-16T12:41:33;16.70;70.10
21770;DHT22;11046;49.558;8.674;2022-09-16T13:04:29;17.30;73.10
21770;DHT22;11046;49.558;8.674;2022-09-16T13:07:34;17.40;73.30
21770;DHT22;11046;49.558;8.674;2022-09-16T13:10:42;17.40;73.40
21770;DHT22;11046;49.558;8.674;2022-09-16T13:13:52;17.60;73.70
21770;DHT22;11046;49.558;8.674;2022-09-16T13:17:11;17.70;74.50
21770;DHT22;11046;49.558;8.674;2022-09-16T13:20:39;17.90;74.60
21770;DHT22;11046;49.558;8.674;2022-09-16T13:24:19;18.00;75.10
21770;DHT22;11046;49.558;8.674;2022-09-16T13:27:50;18.20;74.20
21770;DHT22;11046;49.558;8.674;2022-09-16T13:34:19;18.40;69.80
21770;DHT22;11046;49.558;8.674;2022-09-16T13:37:34;18.30;68.70
21770;DHT22;11046;49.558;8.674;2022-09-16T13:40:58;18.20;69.10
21770;DHT22;11046;49.558;8.674;2022-09-16T13:47:58;17.60;68.90
21770;DHT22;11046;49.558;8.674;2022-09-16T13:55:01;16.80;71.70
21770;DHT22;11046;49.558;8.674;2022-09-16T13:58:05;16.30;72.70
21770;DHT22;11046;49.558;8.674;2022-09-16T14:01:20;15.80;73.80
21770;DHT22;11046;49.558;8.674;2022-09-16T14:14:13;15.20;78.20
21770;DHT22;11046;49.558;8.674;2022-09-16T14:17:22;15.20;78.90
21770;DHT22;11046;49.558;8.674;2022-09-16T14:20:24;15.40;79.60
21770;DHT22;11046;49.558;8.674;2022-09-16T14:23:25;15.50;79.10
21770;DHT22;11046;49.558;8.674;2022-09-16T14:26:26;15.60;78.80
21770;DHT22;11046;49.558;8.674;2022-09-16T14:29:26;15.70;78.80
21770;DHT22;11046;49.558;8.674;2022-09-16T14:32:33;15.80;79.00
21770;DHT22;11046;49.558;8.674;2022-09-16T14:35:34;16.00;79.30
21770;DHT22;11046;49.558;8.674;2022-09-16T14:38:42;15.90;79.10
21770;DHT22;11046;49.558;8.674;2022-09-16T14:41:52;15.80;79.70
21770;DHT22;11046;49.558;8.674;2022-09-16T14:44:54;15.80;79.90
21770;DHT22;11046;49.558;8.674;2022-09-16T14:47:57;15.70;80.00
21770;DHT22;11046;49.558;8.674;2022-09-16T14:51:00;15.80;80.70
21770;DHT22;11046;49.558;8.674;2022-09-16T14:54:01;15.80;81.20
21770;DHT22;11046;49.558;8.674;2022-09-16T14:57:06;15.90;81.30
21770;DHT22;11046;49.558;8.674;2022-09-16T15:00:13;15.90;81.30
21770;DHT22;11046;49.558;8.674;2022-09-16T15:03:26;15.90;81.70
21770;DHT22;11046;49.558;8.674;2022-09-16T15:06:37;16.00;82.20
21770;DHT22;11046;49.558;8.674;2022-09-16T15:09:56;16.20;82.00
21770;DHT22;11046;49.558;8.674;2022-09-16T15:13:04;16.20;82.00
21770;DHT22;11046;49.558;8.674;2022-09-16T15:16:11;16.30;81.70
21770;DHT22;11046;49.558;8.674;2022-09-16T15:19:20;16.30;81.80
21770;DHT22;11046;49.558;8.674;2022-09-16T17:44:19;12.60;86.40
21770;DHT22;11046;49.558;8.674;2022-09-16T17:47:20;12.40;86.80
21770;DHT22;11046;49.558;8.674;2022-09-16T17:50:24;12.40;87.10
21770;DHT22;11046;49.558;8.674;2022-09-16T17:53:25;12.30;87.20
21770;DHT22;11046;49.558;8.674;2022-09-16T17:56:25;12.40;87.00
21770;DHT22;11046;49.558;8.674;2022-09-16T17:59:27;12.20;87.20
21770;DHT22;11046;49.558;8.674;2022-09-16T18:02:29;12.20;87.40
21770;DHT22;11046;49.558;8.674;2022-09-16T18:05:34;12.10;87.80
21770;DHT22;11046;49.558;8.674;2022-09-16T18:08:36;12.00;88.10
21770;DHT22;11046;49.558;8.674;2022-09-16T18:11:38;11.90;88.30
21770;DHT22;11046;49.558;8.674;2022-09-16T18:14:39;11.90;88.30
21770;DHT22;11046;49.558;8.674;2022-09-16T18:17:39;11.80;88.30
21770;DHT22;11046;49.558;8.674;2022-09-16T18:20:42;11.80;88.60
21770;DHT22;11046;49.558;8.674;2022-09-16T18:23:43;11.70;88.90
21770;DHT22;11046;49.558;8.674;2022-09-16T18:26:45;11.70;89.20
21770;DHT22;11046;49.558;8.674;2022-09-16T18:29:46;11.70;89.40
21770;DHT22;11046;49.558;8.674;2022-09-16T18:32:47;11.70;89.20
21770;DHT22;11046;49.558;8.674;2022-09-16T18:35:59;11.60;89.40
21770;DHT22;11046;49.558;8.674;2022-09-16T18:39:02;11.70;89.80
21770;DHT22;11046;49.558;8.674;2022-09-16T18:42:03;11.60;89.40
21770;DHT22;11046;49.558;8.674;2022-09-16T18:45:19;11.70;89.60
21770;DHT22;11046;49.558;8.674;2022-09-16T18:48:23;11.60;90.10
21770;DHT22;11046;49.558;8.674;2022-09-16T18:54:28;11.60;90.10
21770;DHT22;11046;49.558;8.674;2022-09-16T18:57:29;11.60;90.10
21770;DHT22;11046;49.558;8.674;2022-09-16T19:00:29;11.50;90.10
21770;DHT22;11046;49.558;8.674;2022-09-16T19:03:31;11.60;90.20
21770;DHT22;11046;49.558;8.674;2022-09-16T19:06:36;11.50;90.30
21770;DHT22;11046;49.558;8.674;2022-09-16T19:09:38;11.50;90.40
21770;DHT22;11046;49.558;8.674;2022-09-16T19:12:39;11.50;90.30
21770;DHT22;11046;49.558;8.674;2022-09-16T19:15:40;11.40;90.50
21770;DHT22;11046;49.558;8.674;2022-09-16T19:18:41;11.40;90.50
21770;DHT22;11046;49.558;8.674;2022-09-16T19:21:42;11.30;90.60
21770;DHT22;11046;49.558;8.674;2022-09-16T19:24:43;11.30;90.70
21770;DHT22;11046;49.558;8.674;2022-09-16T19:27:43;11.40;90.60
21770;DHT22;11046;49.558;8.674;2022-09-16T19:30:46;11.40;90.90
21770;DHT22;11046;49.558;8.674;2022-09-16T19:33:49;11.30;90.70
21770;DHT22;11046;49.558;8.674;2022-09-16T19:36:50;11.30;90.80
21770;DHT22;11046;49.558;8.674;2022-09-16T19:39:51;11.20;90.90
21770;DHT22;11046;49.558;8.674;2022-09-16T19:42:51;11.20;90.80
21770;DHT22;11046;49.558;8.674;2022-09-16T19:45:52;11.10;90.90
21770;DHT22;11046;49.558;8.674;2022-09-16T19:48:53;11.10;91.00
21770;DHT22;11046;49.558;8.674;2022-09-16T19:51:55;11.10;90.90
21770;DHT22;11046;49.558;8.674;2022-09-16T19:54:58;11.10;91.00
21770;DHT22;11046;49.558;8.674;2022-09-16T19:57:58;11.10;91.10
21770;DHT22;11046;49.558;8.674;2022-09-16T20:01:03;11.10;91.10
21770;DHT22;11046;49.558;8.674;2022-09-16T20:04:05;11.00;91.10
21770;DHT22;11046;49.558;8.674;2022-09-16T20:07:07;11.00;91.20
21770;DHT22;11046;49.558;8.674;2022-09-16T20:10:12;10.90;91.20
21770;DHT22;11046;49.558;8.674;2022-09-16T20:13:12;10.90;91.30
21770;DHT22;11046;49.558;8.674;2022-09-16T20:16:15;10.80;91.30
21770;DHT22;11046;49.558;8.674;2022-09-16T20:19:17;10.80;91.40
21770;DHT22;11046;49.558;8.674;2022-09-16T20:22:18;10.80;91.50
21770;DHT22;11046;49.558;8.674;2022-09-16T20:25:18;10.70;91.40
21770;DHT22;11046;49.558;8.674;2022-09-16T20:28:19;10.70;91.60
21770;DHT22;11046;49.558;8.674;2022-09-16T20:31:27;10.60;91.60
21770;DHT22;11046;49.558;8.674;2022-09-16T20:34:28;10.60;91.70
21770;DHT22;11046;49.558;8.674;2022-09-16T20:37:29;10.50;91.70
21770;DHT22;11046;49.558;8.674;2022-09-16T20:40:33;10.50;91.70
21770;DHT22;11046;49.558;8.674;2022-09-16T20:43:34;10.50;91.70
21770;DHT22;11046;49.558;8.674;2022-09-16T20:46:36;10.50;91.60
21770;DHT22;11046;49.558;8.674;2022-09-16T20:49:38;10.50;91.70
21770;DHT22;11046;49.558;8.674;2022-09-16T20:52:38;10.50;91.80
21770;DHT22;11046;49.558;8.674;2022-09-16T20:55:39;10.50;91.90
21770;DHT22;11046;49.558;8.674;2022-09-16T20:58:42;10.50;91.90
21770;DHT22;11046;49.558;8.674;2022-09-16T21:01:43;10.40;91.90
21770;DHT22;11046;49.558;8.674;2022-09-16T21:04:44;10.40;92.00
21770;DHT22;11046;49.558;8.674;2022-09-16T21:07:44;10.40;92.10
21770;DHT22;11046;49.558;8.674;2022-09-16T21:10:45;10.40;92.10
21770;DHT22;11046;49.558;8.674;2022-09-16T21:13:52;10.30;92.20
21770;DHT22;11046;49.558;8.674;2022-09-16T21:16:55;10.30;92.30
21770;DHT22;11046;49.558;8.674;2022-09-16T21:19:57;10.30;92.10
21770;DHT22;11046;49.558;8.674;2022-09-16T21:22:58;10.30;92.20
21770;DHT22;11046;49.558;8.674;2022-09-16T21:26:08;10.30;92.10
21770;DHT22;11046;49.558;8.674;2022-09-16T21:29:12;10.30;92.20
21770;DHT22;11046;49.558;8.674;2022-09-16T21:32:13;10.20;92.30
21770;DHT22;11046;49.558;8.674;2022-09-16T21:35:14;10.10;92.40
21770;DHT22;11046;49.558;8.674;2022-09-16T21:38:15;10.10;92.30
21770;DHT22;11046;49.558;8.674;2022-09-16T21:41:19;10.10;92.40
21770;DHT22;11046;49.558;8.674;2022-09-16T21:44:23;10.10;92.40
21770;DHT22;11046;49.558;8.674;2022-09-16T21:47:23;10.10;92.50
21770;DHT22;11046;49.558;8.674;2022-09-16T21:50:27;10.10;92.60
21770;DHT22;11046;49.558;8.674;2022-09-16T21:53:30;10.10;92.50
21770;DHT22;11046;49.558;8.674;2022-09-16T21:56:31;10.00;92.50
21770;DHT22;11046;49.558;8.674;2022-09-16T21:59:32;10.00;92.50
21770;DHT22;11046;49.558;8.674;2022-09-16T22:02:33;10.00;92.60
21770;DHT22;11046;49.558;8.674;2022-09-16T22:05:33;10.00;92.60
21770;DHT22;11046;49.558;8.674;2022-09-16T22:08:34;10.00;92.50
21770;DHT22;11046;49.558;8.674;2022-09-16T22:11:37;10.00;92.50
21770;DHT22;11046;49.558;8.674;2022-09-16T22:14:40;10.00;92.60
21770;DHT22;11046;49.558;8.674;2022-09-16T22:17:42;9.90;92.50
21770;DHT22;11046;49.558;8.674;2022-09-16T22:20:43;9.90;92.50
21770;DHT22;11046;49.558;8.674;2022-09-16T22:23:43;9.80;92.50
21770;DHT22;11046;49.558;8.674;2022-09-16T22:26:44;9.80;92.60
21770;DHT22;11046;49.558;8.674;2022-09-16T22:29:45;9.80;93.00
21770;DHT22;11046;49.558;8.674;2022-09-16T22:32:45;9.80;92.70
21770;DHT22;11046;49.558;8.674;2022-09-16T22:35:46;9.80;92.80
21770;DHT22;11046;49.558;8.674;2022-09-16T22:38:48;9.90;92.80
21770;DHT22;11046;49.558;8.674;2022-09-16T22:41:49;9.90;92.80
21770;DHT22;11046;49.558;8.674;2022-09-16T22:44:49;9.80;92.90
21770;DHT22;11046;49.558;8.674;2022-09-16T22:47:51;9.80;92.90
21770;DHT22;11046;49.558;8.674;2022-09-16T22:50:56;9.80;92.80
21770;DHT22;11046;49.558;8.674;2022-09-16T22:53:57;9.80;92.80
21770;DHT22;11046;49.558;8.674;2022-09-16T22:56:57;9.70;92.80
21770;DHT22;11046;49.558;8.674;2022-09-16T22:59:58;9.70;92.90
21770;DHT22;11046;49.558;8.674;2022-09-16T23:02:59;9.70;92.90
21770;DHT22;11046;49.558;8.674;2022-09-16T23:06:01;9.60;92.90
21770;DHT22;11046;49.558;8.674;2022-09-16T23:09:04;9.60;92.90
21770;DHT22;11046;49.558;8.674;2022-09-16T23:12:05;9.60;92.90
21770;DHT22;11046;49.558;8.674;2022-09-16T23:15:06;9.60;93.00
21770;DHT22;11046;49.558;8.674;2022-09-16T23:18:08;9.60;93.00
21770;DHT22;11046;49.558;8.674;2022-09-16T23:21:11;9.60;93.00
21770;DHT22;11046;49.558;8.674;2022-09-16T23:24:17;9.60;93.10
21770;DHT22;11046;49.558;8.674;2022-09-16T23:27:18;9.60;93.40
21770;DHT22;11046;49.558;8.674;2022-09-16T23:30:18;9.60;93.00
21770;DHT22;11046;49.558;8.674;2022-09-16T23:33:19;9.50;93.00
21770;DHT22;11046;49.558;8.674;2022-09-16T23:36:20;9.50;93.10
21770;DHT22;11046;49.558;8.674;2022-09-16T23:39:21;9.40;93.10
21770;DHT22;11046;49.558;8.674;2022-09-16T23:42:22;9.40;93.10
21770;DHT22;11046;49.558;8.674;2022-09-16T23:45:22;9.40;93.10
21770;DHT22;11046;49.558;8.674;2022-09-16T23:48:23;9.30;93.10
21770;DHT22;11046;49.558;8.674;2022-09-16T23:51:25;9.30;93.10
21770;DHT22;11046;49.558;8.674;2022-09-16T23:54:26;9.30;93.10
21770;DHT22;11046;49.558;8.674;2022-09-16T23:57:26;9.30;93.10
